sensor_id;sensor_type;location;lat;lon;timestamp;P1;durP1;ratioP1;P2;durP2;ratioP2
22904;SDS011;11619;50.140;8.518;2023-03-14T00:00:15;2.08;;;1.55;;
22904;SDS011;11619;50.140;8.518;2023-03-14T00:02:42;2.10;;;1.50;;
22904;SDS011;11619;50.140;8.518;2023-03-14T00:05:09;3.42;;;1.67;;
22904;SDS011;11619;50.140;8.518;2023-03-14T00:07:36;1.45;;;1.33;;
22904;SDS011;11619;50.140;8.518;2023-03-14T00:10:06;3.42;;;1.77;;
22904;SDS011;11619;50.140;8.518;2023-03-14T00:12:34;2.70;;;2.00;;
22904;SDS011;11619;50.140;8.518;2023-03-14T00:15:00;3.55;;;1.98;;
22904;SDS011;11619;50.140;8.518;2023-03-14T00:17:29;3.95;;;1.75;;
22904;SDS011;11619;50.140;8.518;2023-03-14T00:19:56;3.53;;;1.92;;
22904;SDS011;11619;50.140;8.518;2023-03-14T00:22:23;2.55;;;1.73;;
22904;SDS011;11619;50.140;8.518;2023-03-14T00:24:50;4.97;;;1.85;;
22904;SDS011;11619;50.140;8.518;2023-03-14T00:27:16;2.20;;;2.00;;
22904;SDS011;11619;50.140;8.518;2023-03-14T00:29:42;4.28;;;1.83;;
22904;SDS011;11619;50.140;8.518;2023-03-14T00:32:09;2.17;;;1.85;;
22904;SDS011;11619;50.140;8.518;2023-03-14T00:34:36;3.20;;;1.83;;
22904;SDS011;11619;50.140;8.518;2023-03-14T00:37:03;4.28;;;1.95;;
22904;SDS011;11619;50.140;8.518;2023-03-14T00:39:30;2.88;;;1.63;;
22904;SDS011;11619;50.140;8.518;2023-03-14T00:41:56;2.15;;;1.63;;
22904;SDS011;11619;50.140;8.518;2023-03-14T00:44:23;3.42;;;1.55;;
22904;SDS011;11619;50.140;8.518;2023-03-14T00:46:49;3.42;;;1.30;;
22904;SDS011;11619;50.140;8.518;2023-03-14T00:49:16;4.35;;;1.77;;
22904;SDS011;11619;50.140;8.518;2023-03-14T00:51:42;2.42;;;1.50;;
22904;SDS011;11619;50.140;8.518;2023-03-14T00:54:08;4.05;;;1.75;;
22904;SDS011;11619;50.140;8.518;2023-03-14T00:56:35;3.17;;;1.27;;
22904;SDS011;11619;50.140;8.518;2023-03-14T00:59:01;1.42;;;1.23;;
22904;SDS011;11619;50.140;8.518;2023-03-14T01:01:28;4.18;;;1.63;;
22904;SDS011;11619;50.140;8.518;2023-03-14T01:03:54;3.58;;;1.38;;
22904;SDS011;11619;50.140;8.518;2023-03-14T01:06:22;6.15;;;2.10;;
22904;SDS011;11619;50.140;8.518;2023-03-14T01:08:50;6.53;;;2.08;;
22904;SDS011;11619;50.140;8.518;2023-03-14T01:11:27;4.65;;;1.48;;
22904;SDS011;11619;50.140;8.518;2023-03-14T01:13:55;7.18;;;1.98;;
22904;SDS011;11619;50.140;8.518;2023-03-14T01:16:24;6.88;;;1.58;;
22904;SDS011;11619;50.140;8.518;2023-03-14T01:18:54;5.78;;;1.58;;
22904;SDS011;11619;50.140;8.518;2023-03-14T01:23:48;6.28;;;2.10;;
22904;SDS011;11619;50.140;8.518;2023-03-14T01:26:17;7.65;;;1.92;;
22904;SDS011;11619;50.140;8.518;2023-03-14T01:28:45;5.75;;;1.40;;
22904;SDS011;11619;50.140;8.518;2023-03-14T01:31:12;7.22;;;2.10;;
22904;SDS011;11619;50.140;8.518;2023-03-14T01:33:39;8.40;;;2.20;;
22904;SDS011;11619;50.140;8.518;2023-03-14T01:36:06;6.85;;;1.67;;
22904;SDS011;11619;50.140;8.518;2023-03-14T01:38:34;4.72;;;1.50;;
22904;SDS011;11619;50.140;8.518;2023-03-14T01:41:01;9.18;;;2.00;;
22904;SDS011;11619;50.140;8.518;2023-03-14T01:43:28;4.30;;;1.83;;
22904;SDS011;11619;50.140;8.518;2023-03-14T01:48:32;5.53;;;1.80;;
22904;SDS011;11619;50.140;8.518;2023-03-14T01:50:59;7.03;;;1.92;;
22904;SDS011;11619;50.140;8.518;2023-03-14T01:53:27;5.90;;;1.50;;
22904;SDS011;11619;50.140;8.518;2023-03-14T01:55:54;4.93;;;1.73;;
22904;SDS011;11619;50.140;8.518;2023-03-14T01:58:22;7.35;;;1.90;;
22904;SDS011;11619;50.140;8.518;2023-03-14T02:00:53;4.85;;;1.95;;
22904;SDS011;11619;50.140;8.518;2023-03-14T02:03:20;4.88;;;1.85;;
22904;SDS011;11619;50.140;8.518;2023-03-14T02:05:48;2.67;;;1.52;;
22904;SDS011;11619;50.140;8.518;2023-03-14T02:08:17;6.72;;;1.90;;
22904;SDS011;11619;50.140;8.518;2023-03-14T02:10:47;8.48;;;1.95;;
22904;SDS011;11619;50.140;8.518;2023-03-14T02:13:16;3.92;;;1.58;;
22904;SDS011;11619;50.140;8.518;2023-03-14T02:15:43;5.18;;;1.83;;
22904;SDS011;11619;50.140;8.518;2023-03-14T02:18:09;5.10;;;1.73;;
22904;SDS011;11619;50.140;8.518;2023-03-14T02:20:51;4.35;;;1.75;;
22904;SDS011;11619;50.140;8.518;2023-03-14T02:25:53;6.25;;;1.98;;
22904;SDS011;11619;50.140;8.518;2023-03-14T02:28:30;9.07;;;1.85;;
22904;SDS011;11619;50.140;8.518;2023-03-14T02:30:56;7.43;;;2.38;;
22904;SDS011;11619;50.140;8.518;2023-03-14T02:33:22;4.75;;;1.65;;
22904;SDS011;11619;50.140;8.518;2023-03-14T02:38:24;6.50;;;1.77;;
22904;SDS011;11619;50.140;8.518;2023-03-14T02:40:55;5.15;;;1.50;;
22904;SDS011;11619;50.140;8.518;2023-03-14T02:43:21;3.67;;;1.58;;
22904;SDS011;11619;50.140;8.518;2023-03-14T02:45:49;8.10;;;1.88;;
22904;SDS011;11619;50.140;8.518;2023-03-14T02:48:20;5.22;;;1.95;;
22904;SDS011;11619;50.140;8.518;2023-03-14T02:50:48;4.82;;;1.80;;
22904;SDS011;11619;50.140;8.518;2023-03-14T02:53:19;5.60;;;1.70;;
22904;SDS011;11619;50.140;8.518;2023-03-14T02:55:48;7.15;;;1.63;;
22904;SDS011;11619;50.140;8.518;2023-03-14T02:58:14;3.95;;;1.40;;
22904;SDS011;11619;50.140;8.518;2023-03-14T03:00:41;6.72;;;1.92;;
22904;SDS011;11619;50.140;8.518;2023-03-14T03:03:08;8.55;;;2.40;;
22904;SDS011;11619;50.140;8.518;2023-03-14T03:05:35;3.67;;;1.73;;
22904;SDS011;11619;50.140;8.518;2023-03-14T03:08:02;5.95;;;1.80;;
22904;SDS011;11619;50.140;8.518;2023-03-14T03:10:29;4.20;;;1.55;;
22904;SDS011;11619;50.140;8.518;2023-03-14T03:12:56;9.50;;;2.13;;
22904;SDS011;11619;50.140;8.518;2023-03-14T03:15:23;5.25;;;2.05;;
22904;SDS011;11619;50.140;8.518;2023-03-14T03:17:50;3.58;;;1.90;;
22904;SDS011;11619;50.140;8.518;2023-03-14T03:20:16;3.97;;;1.65;;
22904;SDS011;11619;50.140;8.518;2023-03-14T03:22:43;4.72;;;1.73;;
22904;SDS011;11619;50.140;8.518;2023-03-14T03:25:10;7.35;;;1.25;;
22904;SDS011;11619;50.140;8.518;2023-03-14T03:27:36;9.75;;;2.05;;
22904;SDS011;11619;50.140;8.518;2023-03-14T03:30:04;9.30;;;2.05;;
22904;SDS011;11619;50.140;8.518;2023-03-14T03:32:31;4.68;;;2.28;;
22904;SDS011;11619;50.140;8.518;2023-03-14T03:34:58;6.32;;;2.00;;
22904;SDS011;11619;50.140;8.518;2023-03-14T03:37:25;4.80;;;1.88;;
22904;SDS011;11619;50.140;8.518;2023-03-14T03:39:51;6.78;;;1.83;;
22904;SDS011;11619;50.140;8.518;2023-03-14T03:42:18;7.07;;;1.77;;
22904;SDS011;11619;50.140;8.518;2023-03-14T03:44:45;7.20;;;1.95;;
22904;SDS011;11619;50.140;8.518;2023-03-14T03:47:11;9.15;;;2.25;;
22904;SDS011;11619;50.140;8.518;2023-03-14T03:49:37;5.07;;;1.63;;
22904;SDS011;11619;50.140;8.518;2023-03-14T03:52:04;7.95;;;1.75;;
22904;SDS011;11619;50.140;8.518;2023-03-14T03:54:30;6.25;;;1.90;;
22904;SDS011;11619;50.140;8.518;2023-03-14T03:56:57;5.90;;;1.90;;
22904;SDS011;11619;50.140;8.518;2023-03-14T03:59:23;4.75;;;1.58;;
22904;SDS011;11619;50.140;8.518;2023-03-14T04:01:49;4.38;;;2.05;;
22904;SDS011;11619;50.140;8.518;2023-03-14T04:04:16;7.50;;;1.88;;
22904;SDS011;11619;50.140;8.518;2023-03-14T04:06:43;4.20;;;1.40;;
22904;SDS011;11619;50.140;8.518;2023-03-14T04:09:10;7.32;;;1.85;;
22904;SDS011;11619;50.140;8.518;2023-03-14T04:11:37;4.03;;;1.30;;
22904;SDS011;11619;50.140;8.518;2023-03-14T04:14:05;6.53;;;1.63;;
22904;SDS011;11619;50.140;8.518;2023-03-14T04:16:32;4.18;;;1.90;;
22904;SDS011;11619;50.140;8.518;2023-03-14T04:18:58;7.22;;;2.17;;
22904;SDS011;11619;50.140;8.518;2023-03-14T04:21:25;7.43;;;2.00;;
22904;SDS011;11619;50.140;8.518;2023-03-14T04:23:52;4.75;;;1.77;;
22904;SDS011;11619;50.140;8.518;2023-03-14T04:26:18;8.90;;;2.65;;
22904;SDS011;11619;50.140;8.518;2023-03-14T04:28:44;2.90;;;1.60;;
22904;SDS011;11619;50.140;8.518;2023-03-14T04:31:15;9.85;;;1.52;;
22904;SDS011;11619;50.140;8.518;2023-03-14T04:33:44;8.50;;;2.27;;
22904;SDS011;11619;50.140;8.518;2023-03-14T04:36:11;5.20;;;1.55;;
22904;SDS011;11619;50.140;8.518;2023-03-14T04:38:38;3.78;;;1.63;;
22904;SDS011;11619;50.140;8.518;2023-03-14T04:41:05;6.95;;;2.10;;
22904;SDS011;11619;50.140;8.518;2023-03-14T04:43:32;5.63;;;1.73;;
22904;SDS011;11619;50.140;8.518;2023-03-14T04:45:59;6.28;;;1.48;;
22904;SDS011;11619;50.140;8.518;2023-03-14T04:48:26;4.72;;;1.42;;
22904;SDS011;11619;50.140;8.518;2023-03-14T04:50:52;4.97;;;2.05;;
22904;SDS011;11619;50.140;8.518;2023-03-14T04:53:19;5.82;;;1.50;;
22904;SDS011;11619;50.140;8.518;2023-03-14T04:55:49;4.05;;;1.40;;
22904;SDS011;11619;50.140;8.518;2023-03-14T04:58:18;8.13;;;1.55;;
22904;SDS011;11619;50.140;8.518;2023-03-14T05:00:45;3.80;;;1.77;;
22904;SDS011;11619;50.140;8.518;2023-03-14T05:03:12;4.60;;;1.80;;
22904;SDS011;11619;50.140;8.518;2023-03-14T05:05:41;7.38;;;1.80;;
22904;SDS011;11619;50.140;8.518;2023-03-14T05:08:07;4.22;;;1.10;;
22904;SDS011;11619;50.140;8.518;2023-03-14T05:10:33;3.85;;;1.55;;
22904;SDS011;11619;50.140;8.518;2023-03-14T05:13:00;4.20;;;1.48;;
22904;SDS011;11619;50.140;8.518;2023-03-14T05:15:26;3.15;;;1.10;;
22904;SDS011;11619;50.140;8.518;2023-03-14T05:17:53;5.00;;;1.55;;
22904;SDS011;11619;50.140;8.518;2023-03-14T05:20:20;8.20;;;1.35;;
22904;SDS011;11619;50.140;8.518;2023-03-14T05:22:47;5.03;;;1.52;;
22904;SDS011;11619;50.140;8.518;2023-03-14T05:25:13;4.32;;;1.77;;
22904;SDS011;11619;50.140;8.518;2023-03-14T05:27:40;4.57;;;1.35;;
22904;SDS011;11619;50.140;8.518;2023-03-14T05:30:06;6.40;;;1.80;;
22904;SDS011;11619;50.140;8.518;2023-03-14T05:32:35;3.22;;;1.50;;
22904;SDS011;11619;50.140;8.518;2023-03-14T05:35:02;5.50;;;1.52;;
22904;SDS011;11619;50.140;8.518;2023-03-14T05:37:29;2.17;;;1.23;;
22904;SDS011;11619;50.140;8.518;2023-03-14T05:39:55;3.80;;;1.45;;
22904;SDS011;11619;50.140;8.518;2023-03-14T05:42:21;3.83;;;1.40;;
22904;SDS011;11619;50.140;8.518;2023-03-14T05:44:48;5.40;;;1.55;;
22904;SDS011;11619;50.140;8.518;2023-03-14T05:47:14;3.72;;;1.10;;
22904;SDS011;11619;50.140;8.518;2023-03-14T05:49:41;3.45;;;1.10;;
22904;SDS011;11619;50.140;8.518;2023-03-14T05:52:07;4.95;;;1.20;;
22904;SDS011;11619;50.140;8.518;2023-03-14T05:54:33;4.53;;;1.23;;
22904;SDS011;11619;50.140;8.518;2023-03-14T05:57:00;2.58;;;1.00;;
22904;SDS011;11619;50.140;8.518;2023-03-14T05:59:26;4.65;;;1.02;;
22904;SDS011;11619;50.140;8.518;2023-03-14T06:01:53;3.38;;;1.10;;
22904;SDS011;11619;50.140;8.518;2023-03-14T06:04:19;3.90;;;1.77;;
22904;SDS011;11619;50.140;8.518;2023-03-14T06:06:45;5.25;;;1.60;;
22904;SDS011;11619;50.140;8.518;2023-03-14T06:09:12;4.60;;;1.63;;
22904;SDS011;11619;50.140;8.518;2023-03-14T06:11:38;3.67;;;1.48;;
22904;SDS011;11619;50.140;8.518;2023-03-14T06:14:04;3.50;;;1.40;;
22904;SDS011;11619;50.140;8.518;2023-03-14T06:16:31;6.18;;;1.50;;
22904;SDS011;11619;50.140;8.518;2023-03-14T06:18:58;2.95;;;1.08;;
22904;SDS011;11619;50.140;8.518;2023-03-14T06:21:24;2.45;;;1.20;;
22904;SDS011;11619;50.140;8.518;2023-03-14T06:23:51;3.80;;;1.55;;
22904;SDS011;11619;50.140;8.518;2023-03-14T06:26:17;2.28;;;1.10;;
22904;SDS011;11619;50.140;8.518;2023-03-14T06:28:44;2.25;;;1.13;;
22904;SDS011;11619;50.140;8.518;2023-03-14T06:31:10;5.90;;;1.45;;
22904;SDS011;11619;50.140;8.518;2023-03-14T06:33:37;2.63;;;1.20;;
22904;SDS011;11619;50.140;8.518;2023-03-14T06:36:03;3.20;;;1.40;;
22904;SDS011;11619;50.140;8.518;2023-03-14T06:38:30;2.65;;;1.45;;
22904;SDS011;11619;50.140;8.518;2023-03-14T06:40:56;4.78;;;1.10;;
22904;SDS011;11619;50.140;8.518;2023-03-14T06:43:22;3.53;;;1.30;;
22904;SDS011;11619;50.140;8.518;2023-03-14T06:45:49;3.72;;;1.17;;
22904;SDS011;11619;50.140;8.518;2023-03-14T06:48:15;7.07;;;1.60;;
22904;SDS011;11619;50.140;8.518;2023-03-14T06:50:41;3.33;;;1.60;;
22904;SDS011;11619;50.140;8.518;2023-03-14T06:53:08;6.88;;;1.30;;
22904;SDS011;11619;50.140;8.518;2023-03-14T06:55:35;3.53;;;1.25;;
22904;SDS011;11619;50.140;8.518;2023-03-14T06:58:01;4.10;;;1.50;;
22904;SDS011;11619;50.140;8.518;2023-03-14T07:00:27;5.45;;;1.75;;
22904;SDS011;11619;50.140;8.518;2023-03-14T07:02:54;5.07;;;1.40;;
22904;SDS011;11619;50.140;8.518;2023-03-14T07:05:20;3.58;;;1.52;;
22904;SDS011;11619;50.140;8.518;2023-03-14T07:07:46;7.25;;;1.77;;
22904;SDS011;11619;50.140;8.518;2023-03-14T07:10:13;4.15;;;1.20;;
22904;SDS011;11619;50.140;8.518;2023-03-14T07:12:39;3.08;;;1.33;;
22904;SDS011;11619;50.140;8.518;2023-03-14T07:15:06;4.95;;;1.30;;
22904;SDS011;11619;50.140;8.518;2023-03-14T07:17:44;4.03;;;1.25;;
22904;SDS011;11619;50.140;8.518;2023-03-14T07:20:10;5.30;;;1.55;;
22904;SDS011;11619;50.140;8.518;2023-03-14T07:22:37;3.33;;;1.23;;
22904;SDS011;11619;50.140;8.518;2023-03-14T07:25:03;3.95;;;1.00;;
22904;SDS011;11619;50.140;8.518;2023-03-14T07:27:30;4.82;;;1.63;;
22904;SDS011;11619;50.140;8.518;2023-03-14T07:29:56;7.53;;;1.75;;
22904;SDS011;11619;50.140;8.518;2023-03-14T07:32:23;2.67;;;1.30;;
22904;SDS011;11619;50.140;8.518;2023-03-14T07:34:49;4.57;;;1.42;;
22904;SDS011;11619;50.140;8.518;2023-03-14T07:37:15;5.68;;;1.77;;
22904;SDS011;11619;50.140;8.518;2023-03-14T07:39:42;3.35;;;1.40;;
22904;SDS011;11619;50.140;8.518;2023-03-14T07:42:08;6.28;;;1.77;;
22904;SDS011;11619;50.140;8.518;2023-03-14T07:44:34;3.63;;;1.45;;
22904;SDS011;11619;50.140;8.518;2023-03-14T07:47:01;2.00;;;1.10;;
22904;SDS011;11619;50.140;8.518;2023-03-14T07:49:27;2.10;;;1.30;;
22904;SDS011;11619;50.140;8.518;2023-03-14T07:51:54;5.05;;;1.08;;
22904;SDS011;11619;50.140;8.518;2023-03-14T07:54:20;1.25;;;1.10;;
22904;SDS011;11619;50.140;8.518;2023-03-14T07:56:47;3.45;;;1.20;;
22904;SDS011;11619;50.140;8.518;2023-03-14T07:59:13;2.97;;;1.27;;
22904;SDS011;11619;50.140;8.518;2023-03-14T08:01:39;2.38;;;1.25;;
22904;SDS011;11619;50.140;8.518;2023-03-14T08:04:06;3.85;;;1.50;;
22904;SDS011;11619;50.140;8.518;2023-03-14T08:06:32;3.33;;;1.38;;
22904;SDS011;11619;50.140;8.518;2023-03-14T08:08:58;4.38;;;1.50;;
22904;SDS011;11619;50.140;8.518;2023-03-14T08:11:25;1.95;;;1.30;;
22904;SDS011;11619;50.140;8.518;2023-03-14T08:13:51;4.63;;;1.65;;
22904;SDS011;11619;50.140;8.518;2023-03-14T08:16:18;5.13;;;1.75;;
22904;SDS011;11619;50.140;8.518;2023-03-14T08:18:45;3.80;;;1.35;;
22904;SDS011;11619;50.140;8.518;2023-03-14T08:21:12;6.90;;;1.70;;
22904;SDS011;11619;50.140;8.518;2023-03-14T08:23:38;5.78;;;2.13;;
22904;SDS011;11619;50.140;8.518;2023-03-14T08:26:05;5.60;;;1.80;;
22904;SDS011;11619;50.140;8.518;2023-03-14T08:28:31;6.25;;;1.90;;
22904;SDS011;11619;50.140;8.518;2023-03-14T08:31:00;5.00;;;1.77;;
22904;SDS011;11619;50.140;8.518;2023-03-14T08:33:27;5.72;;;2.13;;
22904;SDS011;11619;50.140;8.518;2023-03-14T08:35:55;3.72;;;1.85;;
22904;SDS011;11619;50.140;8.518;2023-03-14T08:38:22;3.17;;;1.48;;
22904;SDS011;11619;50.140;8.518;2023-03-14T08:40:54;2.55;;;1.20;;
22904;SDS011;11619;50.140;8.518;2023-03-14T08:43:25;4.82;;;1.83;;
22904;SDS011;11619;50.140;8.518;2023-03-14T08:45:52;3.72;;;1.73;;
22904;SDS011;11619;50.140;8.518;2023-03-14T08:48:19;2.83;;;1.77;;
22904;SDS011;11619;50.140;8.518;2023-03-14T08:50:45;4.80;;;2.25;;
22904;SDS011;11619;50.140;8.518;2023-03-14T08:53:12;2.75;;;2.17;;
22904;SDS011;11619;50.140;8.518;2023-03-14T08:55:38;3.63;;;2.53;;
22904;SDS011;11619;50.140;8.518;2023-03-14T08:58:05;6.60;;;2.17;;
22904;SDS011;11619;50.140;8.518;2023-03-14T09:00:31;4.85;;;2.90;;
22904;SDS011;11619;50.140;8.518;2023-03-14T09:02:58;3.25;;;2.13;;
22904;SDS011;11619;50.140;8.518;2023-03-14T09:05:24;3.47;;;2.58;;
22904;SDS011;11619;50.140;8.518;2023-03-14T09:07:51;3.05;;;2.00;;
22904;SDS011;11619;50.140;8.518;2023-03-14T09:10:17;1.80;;;1.55;;
22904;SDS011;11619;50.140;8.518;2023-03-14T09:12:44;2.58;;;2.13;;
22904;SDS011;11619;50.140;8.518;2023-03-14T09:15:10;4.10;;;1.75;;
22904;SDS011;11619;50.140;8.518;2023-03-14T09:17:37;5.75;;;2.20;;
22904;SDS011;11619;50.140;8.518;2023-03-14T09:20:04;4.40;;;1.98;;
22904;SDS011;11619;50.140;8.518;2023-03-14T09:22:32;3.72;;;2.63;;
22904;SDS011;11619;50.140;8.518;2023-03-14T09:25:02;4.20;;;2.10;;
22904;SDS011;11619;50.140;8.518;2023-03-14T09:27:30;4.03;;;1.98;;
22904;SDS011;11619;50.140;8.518;2023-03-14T09:29:56;1.95;;;1.80;;
22904;SDS011;11619;50.140;8.518;2023-03-14T09:32:22;2.30;;;1.95;;
22904;SDS011;11619;50.140;8.518;2023-03-14T09:34:49;3.30;;;2.03;;
22904;SDS011;11619;50.140;8.518;2023-03-14T09:37:15;2.70;;;2.20;;
22904;SDS011;11619;50.140;8.518;2023-03-14T09:39:42;3.35;;;3.10;;
22904;SDS011;11619;50.140;8.518;2023-03-14T09:42:11;5.47;;;4.10;;
22904;SDS011;11619;50.140;8.518;2023-03-14T09:44:42;4.57;;;3.47;;
22904;SDS011;11619;50.140;8.518;2023-03-14T09:47:16;2.92;;;2.70;;
22904;SDS011;11619;50.140;8.518;2023-03-14T09:49:42;3.03;;;2.70;;
22904;SDS011;11619;50.140;8.518;2023-03-14T09:52:17;3.35;;;2.15;;
22904;SDS011;11619;50.140;8.518;2023-03-14T09:54:55;2.60;;;2.35;;
22904;SDS011;11619;50.140;8.518;2023-03-14T09:57:24;4.00;;;2.50;;
22904;SDS011;11619;50.140;8.518;2023-03-14T09:59:51;7.95;;;5.75;;
22904;SDS011;11619;50.140;8.518;2023-03-14T10:02:22;3.90;;;3.40;;
22904;SDS011;11619;50.140;8.518;2023-03-14T10:04:52;4.32;;;2.83;;
22904;SDS011;11619;50.140;8.518;2023-03-14T10:07:22;2.45;;;2.17;;
22904;SDS011;11619;50.140;8.518;2023-03-14T10:09:54;6.68;;;2.95;;
22904;SDS011;11619;50.140;8.518;2023-03-14T10:12:30;3.78;;;3.35;;
22904;SDS011;11619;50.140;8.518;2023-03-14T10:15:11;4.75;;;2.60;;
22904;SDS011;11619;50.140;8.518;2023-03-14T10:17:41;5.22;;;4.03;;
22904;SDS011;11619;50.140;8.518;2023-03-14T10:20:25;3.70;;;2.60;;
22904;SDS011;11619;50.140;8.518;2023-03-14T10:22:59;3.47;;;2.70;;
22904;SDS011;11619;50.140;8.518;2023-03-14T10:25:28;4.10;;;2.72;;
22904;SDS011;11619;50.140;8.518;2023-03-14T10:27:56;5.78;;;2.90;;
22904;SDS011;11619;50.140;8.518;2023-03-14T10:33:15;2.65;;;2.38;;
22904;SDS011;11619;50.140;8.518;2023-03-14T10:35:44;4.47;;;3.47;;
22904;SDS011;11619;50.140;8.518;2023-03-14T10:38:12;3.83;;;3.03;;
22904;SDS011;11619;50.140;8.518;2023-03-14T10:40:41;2.17;;;1.80;;
22904;SDS011;11619;50.140;8.518;2023-03-14T10:43:16;3.13;;;1.98;;
22904;SDS011;11619;50.140;8.518;2023-03-14T10:45:50;4.13;;;2.13;;
22904;SDS011;11619;50.140;8.518;2023-03-14T10:48:32;4.00;;;1.92;;
22904;SDS011;11619;50.140;8.518;2023-03-14T10:53:34;2.63;;;2.00;;
22904;SDS011;11619;50.140;8.518;2023-03-14T10:56:05;4.22;;;2.20;;
22904;SDS011;11619;50.140;8.518;2023-03-14T10:58:33;2.28;;;1.70;;
22904;SDS011;11619;50.140;8.518;2023-03-14T11:03:32;4.97;;;2.38;;
22904;SDS011;11619;50.140;8.518;2023-03-14T11:06:06;2.03;;;1.75;;
22904;SDS011;11619;50.140;8.518;2023-03-14T11:11:31;3.55;;;2.20;;
22904;SDS011;11619;50.140;8.518;2023-03-14T11:14:01;3.17;;;2.10;;
22904;SDS011;11619;50.140;8.518;2023-03-14T11:27:40;3.47;;;2.55;;
22904;SDS011;11619;50.140;8.518;2023-03-14T11:30:15;3.75;;;2.97;;
22904;SDS011;11619;50.140;8.518;2023-03-14T11:32:59;2.20;;;2.10;;
22904;SDS011;11619;50.140;8.518;2023-03-14T11:35:34;3.67;;;2.97;;
22904;SDS011;11619;50.140;8.518;2023-03-14T11:38:16;2.67;;;2.47;;
22904;SDS011;11619;50.140;8.518;2023-03-14T11:40:58;2.28;;;2.08;;
22904;SDS011;11619;50.140;8.518;2023-03-14T11:43:28;2.40;;;2.20;;
22904;SDS011;11619;50.140;8.518;2023-03-14T11:49:05;4.15;;;2.22;;
22904;SDS011;11619;50.140;8.518;2023-03-14T11:51:38;2.75;;;2.20;;
22904;SDS011;11619;50.140;8.518;2023-03-14T11:57:00;3.30;;;2.20;;
22904;SDS011;11619;50.140;8.518;2023-03-14T12:01:58;1.10;;;0.50;;
22904;SDS011;11619;50.140;8.518;2023-03-14T12:04:56;0.90;;;0.40;;
22904;SDS011;11619;50.140;8.518;2023-03-14T12:10:14;0.35;;;0.35;;
22904;SDS011;11619;50.140;8.518;2023-03-14T12:12:41;0.65;;;0.40;;
22904;SDS011;11619;50.140;8.518;2023-03-14T12:15:18;2.75;;;0.47;;
22904;SDS011;11619;50.140;8.518;2023-03-14T12:17:46;0.55;;;0.55;;
22904;SDS011;11619;50.140;8.518;2023-03-14T12:22:51;0.68;;;0.57;;
22904;SDS011;11619;50.140;8.518;2023-03-14T12:25:21;0.40;;;0.40;;
22904;SDS011;11619;50.140;8.518;2023-03-14T12:27:49;0.63;;;0.40;;
22904;SDS011;11619;50.140;8.518;2023-03-14T12:30:36;0.45;;;0.45;;
22904;SDS011;11619;50.140;8.518;2023-03-14T12:35:53;0.40;;;0.40;;
22904;SDS011;11619;50.140;8.518;2023-03-14T12:38:27;0.40;;;0.40;;
22904;SDS011;11619;50.140;8.518;2023-03-14T12:43:38;0.60;;;0.60;;
22904;SDS011;11619;50.140;8.518;2023-03-14T12:48:50;0.60;;;0.60;;
22904;SDS011;11619;50.140;8.518;2023-03-14T12:51:36;1.25;;;0.75;;
22904;SDS011;11619;50.140;8.518;2023-03-14T12:59:57;0.60;;;0.52;;
22904;SDS011;11619;50.140;8.518;2023-03-14T13:02:28;0.85;;;0.80;;
22904;SDS011;11619;50.140;8.518;2023-03-14T13:05:12;1.27;;;1.00;;
22904;SDS011;11619;50.140;8.518;2023-03-14T13:13:21;0.90;;;0.70;;
22904;SDS011;11619;50.140;8.518;2023-03-14T13:15:49;1.25;;;0.80;;
22904;SDS011;11619;50.140;8.518;2023-03-14T13:18:30;0.75;;;0.60;;
22904;SDS011;11619;50.140;8.518;2023-03-14T13:21:07;0.77;;;0.68;;
22904;SDS011;11619;50.140;8.518;2023-03-14T13:23:39;10.43;;;5.57;;
22904;SDS011;11619;50.140;8.518;2023-03-14T13:26:09;1.50;;;1.00;;
22904;SDS011;11619;50.140;8.518;2023-03-14T13:28:37;2.30;;;0.93;;
22904;SDS011;11619;50.140;8.518;2023-03-14T13:31:04;0.60;;;0.60;;
22904;SDS011;11619;50.140;8.518;2023-03-14T13:33:32;0.80;;;0.80;;
22904;SDS011;11619;50.140;8.518;2023-03-14T13:36:02;0.70;;;0.70;;
22904;SDS011;11619;50.140;8.518;2023-03-14T13:38:31;1.45;;;1.08;;
22904;SDS011;11619;50.140;8.518;2023-03-14T13:40:59;0.80;;;0.70;;
22904;SDS011;11619;50.140;8.518;2023-03-14T13:43:30;1.00;;;0.60;;
22904;SDS011;11619;50.140;8.518;2023-03-14T13:46:05;0.40;;;0.40;;
22904;SDS011;11619;50.140;8.518;2023-03-14T13:48:47;0.55;;;0.55;;
22904;SDS011;11619;50.140;8.518;2023-03-14T13:51:16;1.38;;;0.73;;
22904;SDS011;11619;50.140;8.518;2023-03-14T13:53:44;0.70;;;0.70;;
22904;SDS011;11619;50.140;8.518;2023-03-14T13:56:11;4.30;;;0.50;;
22904;SDS011;11619;50.140;8.518;2023-03-14T13:58:39;0.63;;;0.60;;
22904;SDS011;11619;50.140;8.518;2023-03-14T14:03:41;0.65;;;0.40;;
22904;SDS011;11619;50.140;8.518;2023-03-14T14:06:23;0.40;;;0.40;;
22904;SDS011;11619;50.140;8.518;2023-03-14T14:08:51;0.52;;;0.50;;
22904;SDS011;11619;50.140;8.518;2023-03-14T14:11:20;3.40;;;0.70;;
22904;SDS011;11619;50.140;8.518;2023-03-14T14:14:12;0.60;;;0.60;;
22904;SDS011;11619;50.140;8.518;2023-03-14T14:16:41;0.60;;;0.60;;
22904;SDS011;11619;50.140;8.518;2023-03-14T14:19:09;0.50;;;0.50;;
22904;SDS011;11619;50.140;8.518;2023-03-14T14:21:36;0.45;;;0.40;;
22904;SDS011;11619;50.140;8.518;2023-03-14T14:24:02;0.60;;;0.40;;
22904;SDS011;11619;50.140;8.518;2023-03-14T14:26:32;0.35;;;0.30;;
22904;SDS011;11619;50.140;8.518;2023-03-14T14:29:03;0.30;;;0.30;;
22904;SDS011;11619;50.140;8.518;2023-03-14T14:31:31;0.50;;;0.50;;
22904;SDS011;11619;50.140;8.518;2023-03-14T14:33:58;0.75;;;0.60;;
22904;SDS011;11619;50.140;8.518;2023-03-14T14:36:38;0.73;;;0.40;;
22904;SDS011;11619;50.140;8.518;2023-03-14T14:39:10;0.47;;;0.40;;
22904;SDS011;11619;50.140;8.518;2023-03-14T14:41:39;0.40;;;0.40;;
22904;SDS011;11619;50.140;8.518;2023-03-14T14:44:07;0.75;;;0.60;;
22904;SDS011;11619;50.140;8.518;2023-03-14T14:46:37;2.85;;;0.57;;
22904;SDS011;11619;50.140;8.518;2023-03-14T14:49:05;0.60;;;0.60;;
22904;SDS011;11619;50.140;8.518;2023-03-14T14:51:40;1.40;;;0.90;;
22904;SDS011;11619;50.140;8.518;2023-03-14T14:54:12;1.08;;;0.77;;
22904;SDS011;11619;50.140;8.518;2023-03-14T14:56:43;1.08;;;0.93;;
22904;SDS011;11619;50.140;8.518;2023-03-14T14:59:20;1.60;;;1.20;;
22904;SDS011;11619;50.140;8.518;2023-03-14T15:01:48;1.65;;;1.10;;
22904;SDS011;11619;50.140;8.518;2023-03-14T15:04:17;1.40;;;1.20;;
22904;SDS011;11619;50.140;8.518;2023-03-14T15:06:43;2.28;;;1.20;;
22904;SDS011;11619;50.140;8.518;2023-03-14T15:09:12;1.50;;;1.40;;
22904;SDS011;11619;50.140;8.518;2023-03-14T15:11:39;1.40;;;1.17;;
22904;SDS011;11619;50.140;8.518;2023-03-14T15:14:05;0.82;;;0.82;;
22904;SDS011;11619;50.140;8.518;2023-03-14T15:16:33;1.15;;;1.05;;
22904;SDS011;11619;50.140;8.518;2023-03-14T15:19:00;0.73;;;0.73;;
22904;SDS011;11619;50.140;8.518;2023-03-14T15:21:48;1.10;;;0.90;;
22904;SDS011;11619;50.140;8.518;2023-03-14T15:24:14;0.65;;;0.65;;
22904;SDS011;11619;50.140;8.518;2023-03-14T15:26:42;0.63;;;0.63;;
22904;SDS011;11619;50.140;8.518;2023-03-14T15:29:10;0.65;;;0.55;;
22904;SDS011;11619;50.140;8.518;2023-03-14T15:31:38;0.73;;;0.73;;
22904;SDS011;11619;50.140;8.518;2023-03-14T15:34:08;0.60;;;0.60;;
22904;SDS011;11619;50.140;8.518;2023-03-14T15:36:35;0.70;;;0.70;;
22904;SDS011;11619;50.140;8.518;2023-03-14T15:39:03;0.70;;;0.70;;
22904;SDS011;11619;50.140;8.518;2023-03-14T15:41:30;1.15;;;0.60;;
22904;SDS011;11619;50.140;8.518;2023-03-14T15:43:57;0.50;;;0.50;;
22904;SDS011;11619;50.140;8.518;2023-03-14T15:46:23;0.63;;;0.63;;
22904;SDS011;11619;50.140;8.518;2023-03-14T15:48:50;0.60;;;0.50;;
22904;SDS011;11619;50.140;8.518;2023-03-14T15:51:17;2.15;;;0.63;;
22904;SDS011;11619;50.140;8.518;2023-03-14T15:53:44;0.60;;;0.60;;
22904;SDS011;11619;50.140;8.518;2023-03-14T15:56:12;1.42;;;0.63;;
22904;SDS011;11619;50.140;8.518;2023-03-14T15:58:43;1.38;;;1.00;;
22904;SDS011;11619;50.140;8.518;2023-03-14T16:01:13;1.33;;;0.88;;
22904;SDS011;11619;50.140;8.518;2023-03-14T16:03:45;1.60;;;1.50;;